createdAt,value
2017-06-20T00:59:27.510Z,69.50
2017-06-20T01:01:55.779Z,69.50
2017-06-20T01:04:24.086Z,69.80
2017-06-20T01:06:52.331Z,70.20
2017-06-20T01:09:20.593Z,70.10
2017-06-20T01:11:48.855Z,70.50
2017-06-20T01:38:19.057Z,72.80
2017-06-20T01:40:47.298Z,74.20
2017-06-20T01:43:15.567Z,74.40
2017-06-20T01:45:43.852Z,76.30
2017-06-20T01:48:12.117Z,78.70
2017-06-20T01:50:40.384Z,80.40
2017-06-20T01:53:08.657Z,79.80
2017-06-20T02:22:39.044Z,78.50
2017-06-20T02:25:07.343Z,78.90
2017-06-20T02:27:35.589Z,79.90
2017-06-20T02:30:03.818Z,81.20
2017-06-20T02:32:51.038Z,81.00
2017-06-20T02:35:19.351Z,79.80
2017-06-20T02:37:47.577Z,80.40
2017-06-20T02:40:15.831Z,79.80
2017-06-20T02:42:44.133Z,79.90
2017-06-20T02:45:12.393Z,79.60
2017-06-20T02:47:40.686Z,79.70
2017-06-20T03:14:10.087Z,80.60
2017-06-20T03:16:38.311Z,80.60
2017-06-20T03:19:06.554Z,81.40
2017-06-20T03:21:34.838Z,81.20
2017-06-20T03:24:03.087Z,81.00
2017-06-20T03:26:31.370Z,81.00
2017-06-20T03:28:59.599Z,81.40
2017-06-20T03:31:27.864Z,81.70
2017-06-20T03:39:56.305Z,81.80
2017-06-20T03:42:24.552Z,81.80
2017-06-20T03:50:53.471Z,82.50
2017-06-20T03:53:21.727Z,83.30
2017-06-20T03:55:49.994Z,83.90
2017-06-20T03:58:18.242Z,84.60
2017-06-20T04:00:46.500Z,83.30
2017-06-20T04:03:14.796Z,85.00
2017-06-20T04:05:43.064Z,84.50
2017-06-20T04:08:11.392Z,84.10
2017-06-20T04:10:39.646Z,84.00
2017-06-20T04:13:07.920Z,84.10
2017-06-20T04:15:36.166Z,83.70
2017-06-20T04:18:04.464Z,83.60
2017-06-20T04:20:32.726Z,85.00
2017-06-20T04:23:01.004Z,84.60
2017-06-20T04:31:29.894Z,90.00
2017-06-20T04:33:58.135Z,88.40
2017-06-20T04:36:26.381Z,88.00
2017-06-20T05:08:55.949Z,92.20
2017-06-20T05:29:31.949Z,94.20
2017-06-20T05:32:00.206Z,92.80
2017-06-20T05:34:28.446Z,93.80
2017-06-20T05:36:56.733Z,93.10
2017-06-20T05:39:24.995Z,92.50
2017-06-20T05:41:53.278Z,91.20
2017-06-20T05:44:21.526Z,90.10
2017-06-20T05:46:49.796Z,90.10
2017-06-20T05:49:18.175Z,90.60
2017-06-20T05:51:46.423Z,89.30
2017-06-20T05:54:14.673Z,89.50
2017-06-20T05:56:43.059Z,88.90
2017-06-20T05:59:11.343Z,86.70
2017-06-20T06:01:39.602Z,87.90
2017-06-20T06:04:07.905Z,85.60
2017-06-20T06:06:36.175Z,86.20
2017-06-20T06:09:04.400Z,86.10
2017-06-20T06:11:32.688Z,89.30
2017-06-20T06:14:00.946Z,90.00
2017-06-20T06:16:54.499Z,87.30
2017-06-20T06:31:23.896Z,83.20
2017-06-20T07:18:54.052Z,73.00
2017-06-20T07:21:22.315Z,72.50
2017-06-20T07:29:50.614Z,69.30
2017-06-20T07:32:18.841Z,69.20
2017-06-20T07:34:47.120Z,68.40
2017-06-20T07:37:15.349Z,68.00
2017-06-20T07:54:44.295Z,65.30
2017-06-20T08:09:13.312Z,62.60
2017-06-20T08:23:42.214Z,58.80
2017-06-20T08:26:10.527Z,57.50
2017-06-20T08:28:38.754Z,57.90
2017-06-20T08:31:06.981Z,57.60
2017-06-20T08:33:35.281Z,56.30
2017-06-20T08:39:03.908Z,55.90
2017-06-20T08:41:32.135Z,54.00
2017-06-20T08:44:00.437Z,52.60
2017-06-20T08:46:28.685Z,53.60
2017-06-20T08:58:24.130Z,50.00
2017-06-20T09:00:52.368Z,50.80
2017-06-20T09:30:23.198Z,47.50
2017-06-20T09:59:54.274Z,43.00
2017-06-20T10:02:22.510Z,43.00
2017-06-20T10:34:53.155Z,40.70
2017-06-20T10:37:21.413Z,40.10
2017-06-20T10:39:49.652Z,41.70
2017-06-20T10:42:18.002Z,41.30
2017-06-20T10:44:46.258Z,41.30
2017-06-20T10:47:14.507Z,40.60
2017-06-20T10:49:42.809Z,40.60
2017-06-20T10:52:11.047Z,41.50
2017-06-20T10:54:39.284Z,43.30
2017-06-20T10:57:07.560Z,40.80
2017-06-20T10:59:35.823Z,41.50
2017-06-20T11:02:04.086Z,42.40
2017-06-20T11:04:32.373Z,40.70
2017-06-20T11:07:00.605Z,41.40
2017-06-20T11:48:56.213Z,36.70
2017-06-20T11:57:53.227Z,37.50
2017-06-20T12:00:21.449Z,38.60
2017-06-20T12:05:49.711Z,38.30
2017-06-20T12:08:17.947Z,38.30
2017-06-20T12:25:47.591Z,36.90
2017-06-20T12:28:15.847Z,37.10
2017-06-20T12:30:44.140Z,37.20
2017-06-20T12:33:12.374Z,37.00
2017-06-20T12:35:40.619Z,36.20
2017-06-20T12:41:08.858Z,35.50
2017-06-20T12:43:37.164Z,34.70
2017-06-20T12:46:05.398Z,36.00
2017-06-20T12:48:33.610Z,36.20
2017-06-20T12:51:01.877Z,36.80
2017-06-20T12:53:30.166Z,37.00
2017-06-20T12:55:58.412Z,36.70
2017-06-20T12:58:26.648Z,36.30
2017-06-20T13:34:16.152Z,38.50
2017-06-20T13:36:57.540Z,40.00
2017-06-20T13:42:49.942Z,38.10
2017-06-20T13:45:26.261Z,38.70
2017-06-20T13:59:55.795Z,39.50
2017-06-20T14:14:54.987Z,40.00
2017-06-20T15:11:41.027Z,35.70
2017-06-20T15:29:10.935Z,35.40
2017-06-20T15:31:39.215Z,35.20
2017-06-20T15:34:07.457Z,36.30
2017-06-20T15:57:36.595Z,36.70
2017-06-20T16:00:04.894Z,36.10
2017-06-20T16:02:33.126Z,34.80
2017-06-20T16:05:01.369Z,34.90
2017-06-20T16:07:29.658Z,35.50
2017-06-20T17:58:04.980Z,47.10
2017-06-20T19:00:37.431Z,52.10
2017-06-20T19:03:05.681Z,51.70
2017-06-20T19:05:33.946Z,52.20
2017-06-20T19:08:02.230Z,52.00
2017-06-20T19:16:30.601Z,54.00
2017-06-20T19:43:00.487Z,54.60
2017-06-20T19:45:28.714Z,54.80
2017-06-20T19:47:56.980Z,54.60
2017-06-20T20:08:40.114Z,55.90
2017-06-20T20:29:10.347Z,55.60
2017-06-20T20:31:38.578Z,55.50
2017-06-20T21:49:15.712Z,61.50
2017-06-20T21:51:43.943Z,61.90
2017-06-20T21:54:12.199Z,62.10
2017-06-20T21:56:40.470Z,63.20
2017-06-20T22:17:09.848Z,66.20
2017-06-20T22:19:38.086Z,65.30
2017-06-20T22:22:06.314Z,66.30
2017-06-20T22:24:34.596Z,68.70
2017-06-20T22:27:02.892Z,70.20
2017-06-20T22:29:31.148Z,70.80
2017-06-20T22:31:59.445Z,70.20
2017-06-20T22:34:27.686Z,70.90
2017-06-20T22:36:55.925Z,70.70
2017-06-20T22:39:24.202Z,70.30
2017-06-20T22:41:52.441Z,70.10
2017-06-20T22:44:20.672Z,71.20
2017-06-20T22:46:49.003Z,69.70
2017-06-20T22:49:17.292Z,69.20
2017-06-20T22:51:45.541Z,68.40
2017-06-20T23:00:22.512Z,70.00
2017-06-20T23:02:50.742Z,72.90
2017-06-20T23:05:19.002Z,75.50
2017-06-20T23:07:56.853Z,75.70
